sensor_id;sensor_type;location;lat;lon;timestamp;pressure;altitude;pressure_sealevel;temperature;humidity
55187;BME280;55457;52.002;5.464;2023-02-12T00:00:35;103613.28;;;21.61;39.27
55187;BME280;55457;52.002;5.464;2023-02-12T00:03:01;103603.28;;;21.61;39.53
55187;BME280;55457;52.002;5.464;2023-02-12T00:05:26;103613.13;;;21.62;39.52
55187;BME280;55457;52.002;5.464;2023-02-12T00:07:52;103610.41;;;21.62;39.37
55187;BME280;55457;52.002;5.464;2023-02-12T00:10:17;103612.09;;;21.63;39.54
55187;BME280;55457;52.002;5.464;2023-02-12T00:12:42;103620.03;;;21.65;39.51
55187;BME280;55457;52.002;5.464;2023-02-12T00:15:07;103612.72;;;21.66;39.24
55187;BME280;55457;52.002;5.464;2023-02-12T00:17:33;103604.59;;;21.66;39.37
55187;BME280;55457;52.002;5.464;2023-02-12T00:19:58;103606.28;;;21.67;39.44
55187;BME280;55457;52.002;5.464;2023-02-12T00:22:23;103609.00;;;21.67;39.02
55187;BME280;55457;52.002;5.464;2023-02-12T00:24:48;103614.25;;;21.68;39.38
55187;BME280;55457;52.002;5.464;2023-02-12T00:27:14;103613.41;;;21.68;39.38
55187;BME280;55457;52.002;5.464;2023-02-12T00:29:39;103607.97;;;21.68;39.40
55187;BME280;55457;52.002;5.464;2023-02-12T00:32:04;103609.66;;;21.69;39.34
55187;BME280;55457;52.002;5.464;2023-02-12T00:34:29;103613.22;;;21.69;39.01
55187;BME280;55457;52.002;5.464;2023-02-12T00:36:55;103609.66;;;21.69;39.21
55187;BME280;55457;52.002;5.464;2023-02-12T00:39:20;103615.09;;;21.69;39.32
55187;BME280;55457;52.002;5.464;2023-02-12T00:41:45;103612.16;;;21.70;39.24
55187;BME280;55457;52.002;5.464;2023-02-12T00:44:10;103607.59;;;21.71;39.29
55187;BME280;55457;52.002;5.464;2023-02-12T00:46:35;103609.28;;;21.72;39.23
55187;BME280;55457;52.002;5.464;2023-02-12T00:49:01;103603.88;;;21.72;39.18
55187;BME280;55457;52.002;5.464;2023-02-12T00:51:26;103610.13;;;21.72;39.41
55187;BME280;55457;52.002;5.464;2023-02-12T00:53:51;103608.25;;;21.73;39.17
55187;BME280;55457;52.002;5.464;2023-02-12T00:56:16;103612.66;;;21.74;39.16
55187;BME280;55457;52.002;5.464;2023-02-12T00:58:41;103607.03;;;21.75;38.86
55187;BME280;55457;52.002;5.464;2023-02-12T01:01:07;103608.91;;;21.75;39.12
55187;BME280;55457;52.002;5.464;2023-02-12T01:03:32;103604.31;;;21.75;39.12
55187;BME280;55457;52.002;5.464;2023-02-12T01:05:57;103600.56;;;21.76;39.12
55187;BME280;55457;52.002;5.464;2023-02-12T01:08:23;103604.78;;;21.79;39.27
55187;BME280;55457;52.002;5.464;2023-02-12T01:10:59;103620.25;;;21.78;39.15
55187;BME280;55457;52.002;5.464;2023-02-12T01:13:25;103611.06;;;21.79;38.79
55187;BME280;55457;52.002;5.464;2023-02-12T01:16:04;103613.59;;;21.81;39.09
55187;BME280;55457;52.002;5.464;2023-02-12T01:18:32;103603.56;;;21.81;38.87
55187;BME280;55457;52.002;5.464;2023-02-12T01:20:57;103598.97;;;21.82;38.81
55187;BME280;55457;52.002;5.464;2023-02-12T01:23:23;103599.84;;;21.82;38.87
55187;BME280;55457;52.002;5.464;2023-02-12T01:25:48;103600.69;;;21.83;38.95
55187;BME280;55457;52.002;5.464;2023-02-12T01:28:13;103599.84;;;21.82;38.98
55187;BME280;55457;52.002;5.464;2023-02-12T01:30:38;103598.97;;;21.82;38.73
55187;BME280;55457;52.002;5.464;2023-02-12T01:33:04;103606.13;;;21.83;39.04
55187;BME280;55457;52.002;5.464;2023-02-12T01:35:29;103606.13;;;21.83;38.85
55187;BME280;55457;52.002;5.464;2023-02-12T01:37:54;103609.84;;;21.82;38.74
55187;BME280;55457;52.002;5.464;2023-02-12T01:40:19;103605.28;;;21.82;38.91
55187;BME280;55457;52.002;5.464;2023-02-12T01:42:44;103602.38;;;21.84;38.86
55187;BME280;55457;52.002;5.464;2023-02-12T01:47:41;103605.06;;;21.84;38.75
55187;BME280;55457;52.002;5.464;2023-02-12T01:50:07;103610.50;;;21.84;38.86
55187;BME280;55457;52.002;5.464;2023-02-12T01:52:34;103611.53;;;21.83;38.77
55187;BME280;55457;52.002;5.464;2023-02-12T01:55:01;103605.28;;;21.82;38.65
55187;BME280;55457;52.002;5.464;2023-02-12T01:57:28;103604.41;;;21.82;38.78
55187;BME280;55457;52.002;5.464;2023-02-12T01:59:56;103609.84;;;21.82;38.84
55187;BME280;55457;52.002;5.464;2023-02-12T02:02:22;103604.41;;;21.82;38.79
55187;BME280;55457;52.002;5.464;2023-02-12T02:05:06;103607.13;;;21.82;38.99
55187;BME280;55457;52.002;5.464;2023-02-12T02:07:31;103604.41;;;21.82;38.86
55187;BME280;55457;52.002;5.464;2023-02-12T02:09:57;103604.25;;;21.83;38.91
55187;BME280;55457;52.002;5.464;2023-02-12T02:12:23;103596.94;;;21.84;38.84
55187;BME280;55457;52.002;5.464;2023-02-12T02:15:07;103604.88;;;21.85;39.00
55187;BME280;55457;52.002;5.464;2023-02-12T02:30:11;103594.50;;;21.89;38.85
55187;BME280;55457;52.002;5.464;2023-02-12T02:32:38;103604.13;;;21.92;38.75
55187;BME280;55457;52.002;5.464;2023-02-12T02:37:36;103593.28;;;21.92;39.01
55187;BME280;55457;52.002;5.464;2023-02-12T02:42:42;103596.66;;;21.94;38.88
55187;BME280;55457;52.002;5.464;2023-02-12T02:45:15;103598.34;;;21.95;38.76
55187;BME280;55457;52.002;5.464;2023-02-12T02:47:57;103593.75;;;21.95;38.60
55187;BME280;55457;52.002;5.464;2023-02-12T02:50:24;103596.47;;;21.95;38.65
55187;BME280;55457;52.002;5.464;2023-02-12T02:52:58;103588.31;;;21.95;38.61
55187;BME280;55457;52.002;5.464;2023-02-12T02:55:26;103590.00;;;21.96;38.70
55187;BME280;55457;52.002;5.464;2023-02-12T02:57:57;103587.47;;;21.95;38.72
55187;BME280;55457;52.002;5.464;2023-02-12T03:00:35;103591.88;;;21.96;38.84
55187;BME280;55457;52.002;5.464;2023-02-12T03:03:03;103588.31;;;21.95;38.55
55187;BME280;55457;52.002;5.464;2023-02-12T03:05:31;103588.31;;;21.95;38.61
55187;BME280;55457;52.002;5.464;2023-02-12T03:07:59;103582.88;;;21.95;38.62
55187;BME280;55457;52.002;5.464;2023-02-12T03:10:31;103580.16;;;21.95;38.79
55187;BME280;55457;52.002;5.464;2023-02-12T03:13:11;103579.13;;;21.96;38.61
55187;BME280;55457;52.002;5.464;2023-02-12T03:15:40;103572.03;;;21.95;38.76
55187;BME280;55457;52.002;5.464;2023-02-12T03:18:09;103580.16;;;21.95;38.72
55187;BME280;55457;52.002;5.464;2023-02-12T03:20:39;103573.06;;;21.94;38.76
55187;BME280;55457;52.002;5.464;2023-02-12T03:23:09;103567.63;;;21.94;38.60
55187;BME280;55457;52.002;5.464;2023-02-12T03:26:18;103572.22;;;21.94;38.78
55187;BME280;55457;52.002;5.464;2023-02-12T03:28:30;103575.78;;;21.94;38.80
55187;BME280;55457;52.002;5.464;2023-02-12T03:36:20;103582.25;;;21.93;38.89
55187;BME280;55457;52.002;5.464;2023-02-12T03:38:48;103583.25;;;21.92;38.68
55187;BME280;55457;52.002;5.464;2023-02-12T03:41:30;103580.53;;;21.92;38.62
55187;BME280;55457;52.002;5.464;2023-02-12T03:43:58;103588.69;;;21.92;38.76
55187;BME280;55457;52.002;5.464;2023-02-12T03:51:22;103579.53;;;21.93;38.59
55187;BME280;55457;52.002;5.464;2023-02-12T03:53:49;103584.75;;;21.95;38.72
55187;BME280;55457;52.002;5.464;2023-02-12T03:57:00;103586.63;;;21.94;38.59
55187;BME280;55457;52.002;5.464;2023-02-12T03:59:00;103586.63;;;21.94;38.72
55187;BME280;55457;52.002;5.464;2023-02-12T04:01:25;103592.06;;;21.94;38.56
55187;BME280;55457;52.002;5.464;2023-02-12T04:03:51;103600.22;;;21.94;38.56
55187;BME280;55457;52.002;5.464;2023-02-12T04:06:23;103599.16;;;21.95;38.62
55187;BME280;55457;52.002;5.464;2023-02-12T04:08:49;103601.06;;;21.95;38.59
55187;BME280;55457;52.002;5.464;2023-02-12T04:11:20;103595.44;;;21.96;38.64
55187;BME280;55457;52.002;5.464;2023-02-12T04:18:58;103599.16;;;21.95;38.51
55187;BME280;55457;52.002;5.464;2023-02-12T04:24:13;103613.78;;;21.94;38.66
55187;BME280;55457;52.002;5.464;2023-02-12T04:31:32;103611.06;;;21.94;38.56
55187;BME280;55457;52.002;5.464;2023-02-12T04:36:28;103616.50;;;21.94;38.67
55187;BME280;55457;52.002;5.464;2023-02-12T04:39:02;103620.25;;;21.93;38.60
55187;BME280;55457;52.002;5.464;2023-02-12T04:41:29;103615.81;;;21.92;38.70
55187;BME280;55457;52.002;5.464;2023-02-12T04:43:55;103615.81;;;21.92;38.60
55187;BME280;55457;52.002;5.464;2023-02-12T04:46:20;103618.53;;;21.92;38.94
55187;BME280;55457;52.002;5.464;2023-02-12T04:48:55;103616.69;;;21.93;38.59
55187;BME280;55457;52.002;5.464;2023-02-12T04:51:21;103614.16;;;21.91;38.69
55187;BME280;55457;52.002;5.464;2023-02-12T04:53:46;103622.97;;;21.93;38.60
55187;BME280;55457;52.002;5.464;2023-02-12T04:56:12;103619.56;;;21.91;38.68
55187;BME280;55457;52.002;5.464;2023-02-12T04:58:38;103620.41;;;21.92;38.77
55187;BME280;55457;52.002;5.464;2023-02-12T05:01:04;103621.47;;;21.91;38.66
55187;BME280;55457;52.002;5.464;2023-02-12T05:03:29;103619.56;;;21.91;38.76
55187;BME280;55457;52.002;5.464;2023-02-12T05:05:54;103616.22;;;21.89;38.67
55187;BME280;55457;52.002;5.464;2023-02-12T05:08:19;103617.91;;;21.90;38.60
55187;BME280;55457;52.002;5.464;2023-02-12T05:10:45;103627.91;;;21.89;38.78
55187;BME280;55457;52.002;5.464;2023-02-12T05:13:10;103632.50;;;21.89;38.84
55187;BME280;55457;52.002;5.464;2023-02-12T05:15:37;103627.06;;;21.89;38.65
55187;BME280;55457;52.002;5.464;2023-02-12T05:18:02;103631.66;;;21.88;38.63
55187;BME280;55457;52.002;5.464;2023-02-12T05:20:27;103630.84;;;21.88;38.58
55187;BME280;55457;52.002;5.464;2023-02-12T05:22:53;103618.25;;;21.87;38.97
55187;BME280;55457;52.002;5.464;2023-02-12T05:25:18;103635.41;;;21.87;38.84
55187;BME280;55457;52.002;5.464;2023-02-12T05:27:43;103628.28;;;21.86;38.77
55187;BME280;55457;52.002;5.464;2023-02-12T05:30:08;103631.00;;;21.86;38.70
55187;BME280;55457;52.002;5.464;2023-02-12T05:32:34;103625.56;;;21.86;38.80
55187;BME280;55457;52.002;5.464;2023-02-12T05:34:59;103630.16;;;21.86;38.69
55187;BME280;55457;52.002;5.464;2023-02-12T05:37:24;103628.47;;;21.85;38.83
55187;BME280;55457;52.002;5.464;2023-02-12T05:39:50;103631.19;;;21.85;38.71
55187;BME280;55457;52.002;5.464;2023-02-12T05:42:15;103630.34;;;21.84;38.77
55187;BME280;55457;52.002;5.464;2023-02-12T05:44:40;103632.22;;;21.84;38.98
55187;BME280;55457;52.002;5.464;2023-02-12T05:47:05;103628.66;;;21.83;38.52
55187;BME280;55457;52.002;5.464;2023-02-12T05:49:30;103627.84;;;21.83;38.59
55187;BME280;55457;52.002;5.464;2023-02-12T05:51:56;103630.53;;;21.83;38.83
55187;BME280;55457;52.002;5.464;2023-02-12T05:54:21;103627.84;;;21.83;39.06
55187;BME280;55457;52.002;5.464;2023-02-12T05:56:46;103635.97;;;21.83;38.92
55187;BME280;55457;52.002;5.464;2023-02-12T05:59:19;103639.53;;;21.83;38.59
55187;BME280;55457;52.002;5.464;2023-02-12T06:01:45;103628.84;;;21.82;38.80
55187;BME280;55457;52.002;5.464;2023-02-12T06:04:15;103632.59;;;21.81;38.83
55187;BME280;55457;52.002;5.464;2023-02-12T06:06:41;103629.03;;;21.80;38.71
55187;BME280;55457;52.002;5.464;2023-02-12T06:09:06;103631.56;;;21.82;38.89
55187;BME280;55457;52.002;5.464;2023-02-12T06:11:32;103635.31;;;21.81;38.80
55187;BME280;55457;52.002;5.464;2023-02-12T06:13:57;103631.56;;;21.82;39.05
55187;BME280;55457;52.002;5.464;2023-02-12T06:16:24;103629.88;;;21.81;38.79
55187;BME280;55457;52.002;5.464;2023-02-12T06:18:49;103625.47;;;21.80;38.82
55187;BME280;55457;52.002;5.464;2023-02-12T06:21:15;103629.03;;;21.80;38.71
55187;BME280;55457;52.002;5.464;2023-02-12T06:23:41;103629.88;;;21.81;38.85
55187;BME280;55457;52.002;5.464;2023-02-12T06:26:07;103628.19;;;21.80;38.75
55187;BME280;55457;52.002;5.464;2023-02-12T06:28:32;103630.91;;;21.80;38.76
55187;BME280;55457;52.002;5.464;2023-02-12T06:30:58;103625.47;;;21.80;38.89
55187;BME280;55457;52.002;5.464;2023-02-12T06:33:23;103631.94;;;21.79;38.93
55187;BME280;55457;52.002;5.464;2023-02-12T06:35:48;103637.38;;;21.79;38.86
55187;BME280;55457;52.002;5.464;2023-02-12T06:38:13;103636.34;;;21.80;38.67
55187;BME280;55457;52.002;5.464;2023-02-12T06:40:39;103643.44;;;21.81;38.72
55187;BME280;55457;52.002;5.464;2023-02-12T06:43:04;103639.88;;;21.80;38.66
55187;BME280;55457;52.002;5.464;2023-02-12T06:45:29;103645.13;;;21.82;38.68
55187;BME280;55457;52.002;5.464;2023-02-12T06:47:54;103641.56;;;21.81;38.74
55187;BME280;55457;52.002;5.464;2023-02-12T06:50:19;103647.00;;;21.81;38.79
55187;BME280;55457;52.002;5.464;2023-02-12T06:52:45;103651.59;;;21.81;38.74
55187;BME280;55457;52.002;5.464;2023-02-12T06:55:10;103650.75;;;21.80;38.96
55187;BME280;55457;52.002;5.464;2023-02-12T06:57:35;103655.97;;;21.82;38.94
55187;BME280;55457;52.002;5.464;2023-02-12T07:00:00;103645.13;;;21.82;38.72
55187;BME280;55457;52.002;5.464;2023-02-12T07:02:26;103647.84;;;21.82;38.86
55187;BME280;55457;52.002;5.464;2023-02-12T07:04:51;103646.84;;;21.83;38.77
55187;BME280;55457;52.002;5.464;2023-02-12T07:07:16;103651.22;;;21.84;38.91
55187;BME280;55457;52.002;5.464;2023-02-12T07:09:41;103662.09;;;21.84;38.64
55187;BME280;55457;52.002;5.464;2023-02-12T07:12:06;103662.72;;;21.86;38.80
55187;BME280;55457;52.002;5.464;2023-02-12T07:14:32;103658.97;;;21.87;38.82
55187;BME280;55457;52.002;5.464;2023-02-12T07:16:57;103658.81;;;21.88;38.64
55187;BME280;55457;52.002;5.464;2023-02-12T07:19:22;103668.44;;;21.91;38.76
55187;BME280;55457;52.002;5.464;2023-02-12T07:21:48;103663.03;;;21.91;38.75
55187;BME280;55457;52.002;5.464;2023-02-12T07:24:13;103675.56;;;21.92;38.28
55187;BME280;55457;52.002;5.464;2023-02-12T07:26:39;103673.72;;;21.93;38.94
55187;BME280;55457;52.002;5.464;2023-02-12T07:29:04;103674.06;;;21.89;38.61
55187;BME280;55457;52.002;5.464;2023-02-12T07:31:30;103676.59;;;21.91;38.88
55187;BME280;55457;52.002;5.464;2023-02-12T07:33:56;103682.03;;;21.91;38.95
55187;BME280;55457;52.002;5.464;2023-02-12T07:36:21;103687.28;;;21.93;38.67
55187;BME280;55457;52.002;5.464;2023-02-12T07:38:47;103682.69;;;21.93;38.90
55187;BME280;55457;52.002;5.464;2023-02-12T07:41:13;103677.28;;;21.93;38.82
55187;BME280;55457;52.002;5.464;2023-02-12T07:43:40;103688.13;;;21.93;38.94
55187;BME280;55457;52.002;5.464;2023-02-12T07:46:09;103678.94;;;21.94;38.93
55187;BME280;55457;52.002;5.464;2023-02-12T07:48:35;103678.94;;;21.94;38.58
55187;BME280;55457;52.002;5.464;2023-02-12T07:51:04;103686.06;;;21.95;38.45
55187;BME280;55457;52.002;5.464;2023-02-12T07:53:29;103692.34;;;21.96;38.59
55187;BME280;55457;52.002;5.464;2023-02-12T07:55:55;103687.75;;;21.96;38.72
55187;BME280;55457;52.002;5.464;2023-02-12T07:58:20;103701.13;;;21.98;38.57
55187;BME280;55457;52.002;5.464;2023-02-12T08:00:45;103701.13;;;21.98;38.71
55187;BME280;55457;52.002;5.464;2023-02-12T08:03:10;103702.00;;;21.98;38.73
55187;BME280;55457;52.002;5.464;2023-02-12T08:05:35;103711.16;;;21.97;38.50
55187;BME280;55457;52.002;5.464;2023-02-12T08:08:01;103705.72;;;21.97;38.36
55187;BME280;55457;52.002;5.464;2023-02-12T08:10:26;103709.47;;;21.96;38.55
55187;BME280;55457;52.002;5.464;2023-02-12T08:12:51;103708.44;;;21.97;38.57
55187;BME280;55457;52.002;5.464;2023-02-12T08:15:16;103706.56;;;21.98;38.46
55187;BME280;55457;52.002;5.464;2023-02-12T08:17:41;103714.69;;;21.98;38.45
55187;BME280;55457;52.002;5.464;2023-02-12T08:20:07;103718.28;;;21.98;38.39
55187;BME280;55457;52.002;5.464;2023-02-12T08:22:33;103709.28;;;21.98;38.37
55187;BME280;55457;52.002;5.464;2023-02-12T08:24:58;103718.28;;;21.98;38.59
55187;BME280;55457;52.002;5.464;2023-02-12T08:27:23;103712.84;;;21.98;38.13
55187;BME280;55457;52.002;5.464;2023-02-12T08:29:48;103723.72;;;21.98;38.46
55187;BME280;55457;52.002;5.464;2023-02-12T08:32:13;103728.28;;;21.98;38.43
55187;BME280;55457;52.002;5.464;2023-02-12T08:34:40;103725.41;;;21.99;38.43
55187;BME280;55457;52.002;5.464;2023-02-12T08:37:06;103734.38;;;22.00;38.10
55187;BME280;55457;52.002;5.464;2023-02-12T08:39:31;103735.59;;;21.97;38.09
55187;BME280;55457;52.002;5.464;2023-02-12T08:41:57;103737.00;;;21.93;38.47
55187;BME280;55457;52.002;5.464;2023-02-12T08:44:22;103729.41;;;21.88;38.55
55187;BME280;55457;52.002;5.464;2023-02-12T08:46:50;103738.75;;;21.86;39.16
55187;BME280;55457;52.002;5.464;2023-02-12T08:49:22;103738.75;;;21.86;39.11
55187;BME280;55457;52.002;5.464;2023-02-12T08:51:48;103745.88;;;21.87;38.92
55187;BME280;55457;52.002;5.464;2023-02-12T08:54:15;103737.16;;;21.92;38.62
55187;BME280;55457;52.002;5.464;2023-02-12T08:56:41;103745.16;;;21.93;39.00
55187;BME280;55457;52.002;5.464;2023-02-12T08:59:09;103747.88;;;21.93;39.09
55187;BME280;55457;52.002;5.464;2023-02-12T09:01:35;103746.16;;;21.92;39.14
55187;BME280;55457;52.002;5.464;2023-02-12T09:04:02;103745.16;;;21.93;38.86
55187;BME280;55457;52.002;5.464;2023-02-12T09:06:28;103747.47;;;21.96;39.04
55187;BME280;55457;52.002;5.464;2023-02-12T09:08:55;103748.31;;;21.97;38.98
55187;BME280;55457;52.002;5.464;2023-02-12T09:11:21;103742.53;;;22.00;39.09
55187;BME280;55457;52.002;5.464;2023-02-12T09:13:50;103745.06;;;22.01;38.79
55187;BME280;55457;52.002;5.464;2023-02-12T09:16:15;103750.50;;;22.01;39.04
55187;BME280;55457;52.002;5.464;2023-02-12T09:18:41;103755.09;;;22.01;38.88
55187;BME280;55457;52.002;5.464;2023-02-12T09:21:07;103751.53;;;22.00;38.89
55187;BME280;55457;52.002;5.464;2023-02-12T09:23:33;103751.53;;;22.00;38.98
55187;BME280;55457;52.002;5.464;2023-02-12T09:25:58;103748.81;;;22.00;39.00
55187;BME280;55457;52.002;5.464;2023-02-12T09:28:23;103753.88;;;22.03;39.09
55187;BME280;55457;52.002;5.464;2023-02-12T09:30:49;103753.69;;;22.05;39.17
55187;BME280;55457;52.002;5.464;2023-02-12T09:33:14;103752.66;;;22.06;38.80
55187;BME280;55457;52.002;5.464;2023-02-12T09:35:39;103748.06;;;22.06;38.77
55187;BME280;55457;52.002;5.464;2023-02-12T09:38:05;103744.31;;;22.07;38.94
55187;BME280;55457;52.002;5.464;2023-02-12T09:40:33;103751.47;;;22.08;39.02
55187;BME280;55457;52.002;5.464;2023-02-12T09:45:25;103755.84;;;22.09;38.97
55187;BME280;55457;52.002;5.464;2023-02-12T09:47:55;103758.56;;;22.09;39.12
55187;BME280;55457;52.002;5.464;2023-02-12T09:53:07;103750.41;;;22.09;38.95
55187;BME280;55457;52.002;5.464;2023-02-12T09:55:36;103752.31;;;22.09;38.95
55187;BME280;55457;52.002;5.464;2023-02-12T09:58:02;103756.00;;;22.08;38.91
55187;BME280;55457;52.002;5.464;2023-02-12T10:00:31;103755.19;;;22.07;39.00
55187;BME280;55457;52.002;5.464;2023-02-12T10:02:59;103761.66;;;22.06;39.15
55187;BME280;55457;52.002;5.464;2023-02-12T10:05:32;103752.00;;;22.04;39.08
55187;BME280;55457;52.002;5.464;2023-02-12T10:12:55;103751.31;;;22.02;39.10
55187;BME280;55457;52.002;5.464;2023-02-12T10:20:31;103752.56;;;21.99;39.24
55187;BME280;55457;52.002;5.464;2023-02-12T10:25:25;103755.44;;;21.98;39.25
55187;BME280;55457;52.002;5.464;2023-02-12T10:27:54;103747.47;;;21.96;39.14
55187;BME280;55457;52.002;5.464;2023-02-12T10:30:29;103763.78;;;21.96;39.41
55187;BME280;55457;52.002;5.464;2023-02-12T10:32:58;103755.81;;;21.95;39.23
55187;BME280;55457;52.002;5.464;2023-02-12T10:35:25;103754.13;;;21.94;39.35
55187;BME280;55457;52.002;5.464;2023-02-12T10:37:55;103757.88;;;21.93;39.79
55187;BME280;55457;52.002;5.464;2023-02-12T10:40:23;103751.59;;;21.92;39.61
55187;BME280;55457;52.002;5.464;2023-02-12T10:42:51;103761.81;;;21.90;39.77
55187;BME280;55457;52.002;5.464;2023-02-12T10:45:18;103755.34;;;21.91;39.54
55187;BME280;55457;52.002;5.464;2023-02-12T10:47:45;103761.81;;;21.90;39.70
55187;BME280;55457;52.002;5.464;2023-02-12T10:50:16;103759.94;;;21.91;39.71
55187;BME280;55457;52.002;5.464;2023-02-12T10:52:46;103750.94;;;21.90;39.51
55187;BME280;55457;52.002;5.464;2023-02-12T10:55:25;103753.31;;;21.93;39.44
55187;BME280;55457;52.002;5.464;2023-02-12T10:57:51;103757.88;;;21.93;39.53
55187;BME280;55457;52.002;5.464;2023-02-12T11:02:41;103749.44;;;21.87;39.71
55187;BME280;55457;52.002;5.464;2023-02-12T11:05:23;103752.16;;;21.87;39.69
55187;BME280;55457;52.002;5.464;2023-02-12T11:07:50;103749.63;;;21.86;39.68
55187;BME280;55457;52.002;5.464;2023-02-12T11:10:26;103751.47;;;21.85;39.84
55187;BME280;55457;52.002;5.464;2023-02-12T11:12:52;103754.41;;;21.84;39.98
55187;BME280;55457;52.002;5.464;2023-02-12T11:15:21;103756.06;;;21.85;39.80
55187;BME280;55457;52.002;5.464;2023-02-12T11:17:58;103749.81;;;21.84;39.67
55187;BME280;55457;52.002;5.464;2023-02-12T11:20:25;103750.66;;;21.85;39.54
55187;BME280;55457;52.002;5.464;2023-02-12T11:22:56;103748.97;;;21.84;39.69
55187;BME280;55457;52.002;5.464;2023-02-12T11:25:23;103747.28;;;21.83;39.94
55187;BME280;55457;52.002;5.464;2023-02-12T11:28:09;103739.97;;;21.83;39.66
55187;BME280;55457;52.002;5.464;2023-02-12T11:30:47;103740.13;;;21.82;39.58
55187;BME280;55457;52.002;5.464;2023-02-12T11:33:20;103739.28;;;21.81;39.96
55187;BME280;55457;52.002;5.464;2023-02-12T11:35:53;103745.56;;;21.82;39.73
55187;BME280;55457;52.002;5.464;2023-02-12T11:38:20;103743.88;;;21.81;39.79
55187;BME280;55457;52.002;5.464;2023-02-12T11:40:47;103736.78;;;21.80;39.63
55187;BME280;55457;52.002;5.464;2023-02-12T11:43:13;103741.16;;;21.81;39.80
55187;BME280;55457;52.002;5.464;2023-02-12T11:45:44;103743.25;;;21.79;39.66
55187;BME280;55457;52.002;5.464;2023-02-12T11:48:17;103736.78;;;21.80;39.82
55187;BME280;55457;52.002;5.464;2023-02-12T11:50:47;103736.78;;;21.80;39.73
55187;BME280;55457;52.002;5.464;2023-02-12T11:53:18;103735.09;;;21.79;39.74
55187;BME280;55457;52.002;5.464;2023-02-12T11:55:46;103731.53;;;21.78;39.85
55187;BME280;55457;52.002;5.464;2023-02-12T11:58:20;103732.38;;;21.79;39.53
55187;BME280;55457;52.002;5.464;2023-02-12T12:00:49;103734.06;;;21.80;39.60
55187;BME280;55457;52.002;5.464;2023-02-12T12:03:19;103736.78;;;21.80;39.50
55187;BME280;55457;52.002;5.464;2023-02-12T12:05:50;103731.16;;;21.81;39.60
55187;BME280;55457;52.002;5.464;2023-02-12T12:10:49;103723.84;;;21.82;39.36
55187;BME280;55457;52.002;5.464;2023-02-12T12:13:17;103729.13;;;21.83;39.33
55187;BME280;55457;52.002;5.464;2023-02-12T12:15:47;103722.84;;;21.83;39.15
55187;BME280;55457;52.002;5.464;2023-02-12T12:18:36;103720.13;;;21.83;39.25
55187;BME280;55457;52.002;5.464;2023-02-12T12:21:39;103719.94;;;21.84;39.14
55187;BME280;55457;52.002;5.464;2023-02-12T12:26:38;103716.38;;;21.84;38.90
55187;BME280;55457;52.002;5.464;2023-02-12T12:29:06;103707.56;;;21.82;39.15
55187;BME280;55457;52.002;5.464;2023-02-12T12:31:37;103703.56;;;21.78;39.08
55187;BME280;55457;52.002;5.464;2023-02-12T12:34:08;103700.84;;;21.78;39.00
55187;BME280;55457;52.002;5.464;2023-02-12T12:39:34;103696.25;;;21.78;39.25
55187;BME280;55457;52.002;5.464;2023-02-12T12:45:04;103701.69;;;21.78;39.35
55187;BME280;55457;52.002;5.464;2023-02-12T12:50:02;103698.13;;;21.78;39.70
55187;BME280;55457;52.002;5.464;2023-02-12T13:10:49;103685.28;;;21.72;39.74
55187;BME280;55457;52.002;5.464;2023-02-12T13:13:24;103682.59;;;21.72;39.66
55187;BME280;55457;52.002;5.464;2023-02-12T13:18:27;103671.03;;;21.70;39.63
55187;BME280;55457;52.002;5.464;2023-02-12T13:23:37;103671.03;;;21.70;39.71
55187;BME280;55457;52.002;5.464;2023-02-12T13:26:12;103676.47;;;21.70;39.71
55187;BME280;55457;52.002;5.464;2023-02-12T13:28:41;103672.06;;;21.69;39.69
55187;BME280;55457;52.002;5.464;2023-02-12T13:31:08;103663.94;;;21.69;39.50
55187;BME280;55457;52.002;5.464;2023-02-12T13:33:45;103667.69;;;21.68;39.50
55187;BME280;55457;52.002;5.464;2023-02-12T13:36:13;103663.28;;;21.67;39.66
55187;BME280;55457;52.002;5.464;2023-02-12T13:38:53;103666.84;;;21.67;39.89
55187;BME280;55457;52.002;5.464;2023-02-12T13:41:20;103666.84;;;21.67;39.69
55187;BME280;55457;52.002;5.464;2023-02-12T13:53:55;103660.56;;;21.67;39.34
55187;BME280;55457;52.002;5.464;2023-02-12T13:59:59;103654.13;;;21.68;39.29
55187;BME280;55457;52.002;5.464;2023-02-12T14:04:38;103652.72;;;21.72;39.04
55187;BME280;55457;52.002;5.464;2023-02-12T14:07:09;103645.41;;;21.72;39.08
55187;BME280;55457;52.002;5.464;2023-02-12T14:12:15;103647.75;;;21.75;38.82
55187;BME280;55457;52.002;5.464;2023-02-12T14:14:45;103637.72;;;21.76;39.04
55187;BME280;55457;52.002;5.464;2023-02-12T14:19:56;103648.22;;;21.79;39.08
55187;BME280;55457;52.002;5.464;2023-02-12T14:24:56;103635.69;;;21.78;39.05
55187;BME280;55457;52.002;5.464;2023-02-12T14:27:26;103637.38;;;21.79;38.62
55187;BME280;55457;52.002;5.464;2023-02-12T14:30:04;103637.38;;;21.79;38.68
55187;BME280;55457;52.002;5.464;2023-02-12T14:37:57;103631.56;;;21.82;38.60
55187;BME280;55457;52.002;5.464;2023-02-12T14:40:44;103633.44;;;21.81;38.74
55187;BME280;55457;52.002;5.464;2023-02-12T14:45:54;103628.66;;;21.83;38.45
55187;BME280;55457;52.002;5.464;2023-02-12T14:51:03;103629.50;;;21.84;38.49
55187;BME280;55457;52.002;5.464;2023-02-12T14:53:30;103626.78;;;21.84;38.68
55187;BME280;55457;52.002;5.464;2023-02-12T14:55:57;103624.09;;;21.84;38.45
55187;BME280;55457;52.002;5.464;2023-02-12T14:58:23;103624.72;;;21.86;38.62
55187;BME280;55457;52.002;5.464;2023-02-12T15:00:50;103620.97;;;21.87;38.72
55187;BME280;55457;52.002;5.464;2023-02-12T15:03:28;103624.38;;;21.89;38.83
55187;BME280;55457;52.002;5.464;2023-02-12T15:06:03;103625.69;;;21.93;38.61
55187;BME280;55457;52.002;5.464;2023-02-12T15:14:05;103625.09;;;21.98;38.91
55187;BME280;55457;52.002;5.464;2023-02-12T15:16:32;103624.09;;;21.99;38.69